sensor_id;sensor_type;location;lat;lon;timestamp;P1;durP1;ratioP1;P2;durP2;ratioP2
20810;SDS011;10566;52.928;10.522;2022-08-19T00:01:38;18.75;;;13.15;;
20810;SDS011;10566;52.928;10.522;2022-08-19T00:04:06;18.30;;;12.90;;
20810;SDS011;10566;52.928;10.522;2022-08-19T00:06:34;21.77;;;13.27;;
20810;SDS011;10566;52.928;10.522;2022-08-19T00:09:01;15.77;;;12.07;;
20810;SDS011;10566;52.928;10.522;2022-08-19T00:11:27;16.67;;;11.80;;
20810;SDS011;10566;52.928;10.522;2022-08-19T00:13:55;18.85;;;12.80;;
20810;SDS011;10566;52.928;10.522;2022-08-19T00:16:22;17.90;;;12.73;;
20810;SDS011;10566;52.928;10.522;2022-08-19T00:18:49;20.02;;;13.73;;
20810;SDS011;10566;52.928;10.522;2022-08-19T00:21:15;21.30;;;13.27;;
20810;SDS011;10566;52.928;10.522;2022-08-19T00:23:43;19.33;;;13.57;;
20810;SDS011;10566;52.928;10.522;2022-08-19T00:26:10;22.08;;;14.40;;
20810;SDS011;10566;52.928;10.522;2022-08-19T00:28:40;17.00;;;12.60;;
20810;SDS011;10566;52.928;10.522;2022-08-19T00:31:07;21.60;;;12.63;;
20810;SDS011;10566;52.928;10.522;2022-08-19T00:33:33;19.05;;;13.68;;
20810;SDS011;10566;52.928;10.522;2022-08-19T00:36:02;18.65;;;13.20;;
20810;SDS011;10566;52.928;10.522;2022-08-19T00:38:30;18.73;;;13.68;;
20810;SDS011;10566;52.928;10.522;2022-08-19T00:40:57;18.08;;;13.20;;
20810;SDS011;10566;52.928;10.522;2022-08-19T00:43:24;21.02;;;14.98;;
20810;SDS011;10566;52.928;10.522;2022-08-19T00:45:51;20.10;;;14.30;;
20810;SDS011;10566;52.928;10.522;2022-08-19T00:48:18;22.33;;;15.20;;
20810;SDS011;10566;52.928;10.522;2022-08-19T00:50:44;21.92;;;13.90;;
20810;SDS011;10566;52.928;10.522;2022-08-19T00:53:12;18.17;;;14.68;;
20810;SDS011;10566;52.928;10.522;2022-08-19T00:55:47;20.08;;;13.30;;
20810;SDS011;10566;52.928;10.522;2022-08-19T00:58:15;21.33;;;14.35;;
20810;SDS011;10566;52.928;10.522;2022-08-19T01:00:42;19.48;;;13.73;;
20810;SDS011;10566;52.928;10.522;2022-08-19T01:03:10;24.75;;;14.10;;
20810;SDS011;10566;52.928;10.522;2022-08-19T01:05:37;18.33;;;13.30;;
20810;SDS011;10566;52.928;10.522;2022-08-19T01:08:04;20.45;;;12.95;;
20810;SDS011;10566;52.928;10.522;2022-08-19T01:10:33;16.80;;;12.23;;
20810;SDS011;10566;52.928;10.522;2022-08-19T01:13:01;19.20;;;12.88;;
20810;SDS011;10566;52.928;10.522;2022-08-19T01:15:29;20.90;;;12.30;;
20810;SDS011;10566;52.928;10.522;2022-08-19T01:17:57;19.80;;;12.05;;
20810;SDS011;10566;52.928;10.522;2022-08-19T01:20:25;18.20;;;12.73;;
20810;SDS011;10566;52.928;10.522;2022-08-19T01:22:53;18.83;;;12.15;;
20810;SDS011;10566;52.928;10.522;2022-08-19T01:25:21;18.38;;;11.93;;
20810;SDS011;10566;52.928;10.522;2022-08-19T01:27:49;17.00;;;12.20;;
20810;SDS011;10566;52.928;10.522;2022-08-19T01:30:27;18.85;;;12.13;;
20810;SDS011;10566;52.928;10.522;2022-08-19T01:32:54;18.70;;;12.70;;
20810;SDS011;10566;52.928;10.522;2022-08-19T01:35:20;18.40;;;11.65;;
20810;SDS011;10566;52.928;10.522;2022-08-19T01:37:53;18.33;;;11.98;;
20810;SDS011;10566;52.928;10.522;2022-08-19T01:40:21;19.02;;;12.07;;
20810;SDS011;10566;52.928;10.522;2022-08-19T01:42:48;23.60;;;12.70;;
20810;SDS011;10566;52.928;10.522;2022-08-19T01:45:14;19.67;;;11.90;;
20810;SDS011;10566;52.928;10.522;2022-08-19T01:47:40;17.08;;;11.48;;
20810;SDS011;10566;52.928;10.522;2022-08-19T01:50:07;17.20;;;11.98;;
20810;SDS011;10566;52.928;10.522;2022-08-19T01:52:35;17.15;;;12.68;;
20810;SDS011;10566;52.928;10.522;2022-08-19T01:55:01;17.92;;;11.45;;
20810;SDS011;10566;52.928;10.522;2022-08-19T01:57:27;17.52;;;11.30;;
20810;SDS011;10566;52.928;10.522;2022-08-19T01:59:54;20.88;;;12.48;;
20810;SDS011;10566;52.928;10.522;2022-08-19T02:02:20;15.30;;;10.77;;
20810;SDS011;10566;52.928;10.522;2022-08-19T02:04:46;18.70;;;11.02;;
20810;SDS011;10566;52.928;10.522;2022-08-19T02:07:12;17.45;;;11.05;;
20810;SDS011;10566;52.928;10.522;2022-08-19T02:09:39;16.50;;;10.98;;
20810;SDS011;10566;52.928;10.522;2022-08-19T02:12:06;17.65;;;10.23;;
20810;SDS011;10566;52.928;10.522;2022-08-19T02:14:34;17.15;;;10.60;;
20810;SDS011;10566;52.928;10.522;2022-08-19T02:17:00;13.50;;;10.57;;
20810;SDS011;10566;52.928;10.522;2022-08-19T02:19:26;15.32;;;11.32;;
20810;SDS011;10566;52.928;10.522;2022-08-19T02:21:52;12.60;;;10.27;;
20810;SDS011;10566;52.928;10.522;2022-08-19T02:24:19;13.55;;;10.20;;
20810;SDS011;10566;52.928;10.522;2022-08-19T02:26:45;13.88;;;10.15;;
20810;SDS011;10566;52.928;10.522;2022-08-19T02:29:11;13.20;;;9.35;;
20810;SDS011;10566;52.928;10.522;2022-08-19T02:31:38;15.98;;;9.45;;
20810;SDS011;10566;52.928;10.522;2022-08-19T02:34:04;14.70;;;9.27;;
20810;SDS011;10566;52.928;10.522;2022-08-19T02:36:30;12.05;;;9.07;;
20810;SDS011;10566;52.928;10.522;2022-08-19T02:38:57;14.95;;;9.27;;
20810;SDS011;10566;52.928;10.522;2022-08-19T02:41:29;15.77;;;9.48;;
20810;SDS011;10566;52.928;10.522;2022-08-19T02:43:56;15.00;;;9.77;;
20810;SDS011;10566;52.928;10.522;2022-08-19T02:46:31;17.30;;;9.52;;
20810;SDS011;10566;52.928;10.522;2022-08-19T02:48:59;12.93;;;9.48;;
20810;SDS011;10566;52.928;10.522;2022-08-19T02:51:32;13.95;;;8.57;;
20810;SDS011;10566;52.928;10.522;2022-08-19T02:54:00;14.13;;;9.73;;
20810;SDS011;10566;52.928;10.522;2022-08-19T02:56:31;13.95;;;10.02;;
20810;SDS011;10566;52.928;10.522;2022-08-19T02:59:00;13.90;;;9.18;;
20810;SDS011;10566;52.928;10.522;2022-08-19T03:01:27;13.60;;;9.93;;
20810;SDS011;10566;52.928;10.522;2022-08-19T03:03:55;15.73;;;9.93;;
20810;SDS011;10566;52.928;10.522;2022-08-19T03:06:22;18.15;;;9.77;;
20810;SDS011;10566;52.928;10.522;2022-08-19T03:08:49;14.23;;;9.52;;
20810;SDS011;10566;52.928;10.522;2022-08-19T03:11:16;13.82;;;9.05;;
20810;SDS011;10566;52.928;10.522;2022-08-19T03:13:43;16.48;;;9.80;;
20810;SDS011;10566;52.928;10.522;2022-08-19T03:16:10;14.35;;;9.93;;
20810;SDS011;10566;52.928;10.522;2022-08-19T03:18:37;14.27;;;9.40;;
20810;SDS011;10566;52.928;10.522;2022-08-19T03:21:03;12.93;;;8.98;;
20810;SDS011;10566;52.928;10.522;2022-08-19T03:23:30;13.48;;;9.07;;
20810;SDS011;10566;52.928;10.522;2022-08-19T03:25:58;13.93;;;9.65;;
20810;SDS011;10566;52.928;10.522;2022-08-19T03:28:31;14.98;;;9.98;;
20810;SDS011;10566;52.928;10.522;2022-08-19T03:31:01;12.23;;;9.18;;
20810;SDS011;10566;52.928;10.522;2022-08-19T03:33:28;12.63;;;8.88;;
20810;SDS011;10566;52.928;10.522;2022-08-19T03:35:59;16.13;;;10.00;;
20810;SDS011;10566;52.928;10.522;2022-08-19T03:38:25;15.70;;;9.73;;
20810;SDS011;10566;52.928;10.522;2022-08-19T03:40:53;16.35;;;9.88;;
20810;SDS011;10566;52.928;10.522;2022-08-19T03:43:19;13.25;;;8.70;;
20810;SDS011;10566;52.928;10.522;2022-08-19T03:45:46;16.08;;;9.77;;
20810;SDS011;10566;52.928;10.522;2022-08-19T03:48:14;12.90;;;9.45;;
20810;SDS011;10566;52.928;10.522;2022-08-19T03:50:42;13.93;;;10.30;;
20810;SDS011;10566;52.928;10.522;2022-08-19T03:53:08;12.82;;;9.02;;
20810;SDS011;10566;52.928;10.522;2022-08-19T03:55:39;12.98;;;9.57;;
20810;SDS011;10566;52.928;10.522;2022-08-19T03:58:05;14.43;;;9.85;;
20810;SDS011;10566;52.928;10.522;2022-08-19T04:00:31;12.07;;;8.90;;
20810;SDS011;10566;52.928;10.522;2022-08-19T04:02:58;11.27;;;8.57;;
20810;SDS011;10566;52.928;10.522;2022-08-19T04:05:26;14.27;;;10.05;;
20810;SDS011;10566;52.928;10.522;2022-08-19T04:07:55;13.73;;;9.55;;
20810;SDS011;10566;52.928;10.522;2022-08-19T04:10:23;13.95;;;8.60;;
20810;SDS011;10566;52.928;10.522;2022-08-19T04:12:49;16.95;;;9.70;;
20810;SDS011;10566;52.928;10.522;2022-08-19T04:15:15;17.40;;;10.13;;
20810;SDS011;10566;52.928;10.522;2022-08-19T04:17:41;11.77;;;9.48;;
20810;SDS011;10566;52.928;10.522;2022-08-19T04:20:07;15.52;;;9.32;;
20810;SDS011;10566;52.928;10.522;2022-08-19T04:22:33;14.82;;;10.48;;
20810;SDS011;10566;52.928;10.522;2022-08-19T04:24:59;15.10;;;9.63;;
20810;SDS011;10566;52.928;10.522;2022-08-19T04:27:25;14.48;;;10.00;;
20810;SDS011;10566;52.928;10.522;2022-08-19T04:29:51;11.77;;;8.95;;
20810;SDS011;10566;52.928;10.522;2022-08-19T04:32:18;15.88;;;10.63;;
20810;SDS011;10566;52.928;10.522;2022-08-19T04:34:44;13.38;;;9.77;;
20810;SDS011;10566;52.928;10.522;2022-08-19T04:37:10;15.98;;;10.10;;
20810;SDS011;10566;52.928;10.522;2022-08-19T04:39:37;14.85;;;9.40;;
20810;SDS011;10566;52.928;10.522;2022-08-19T04:42:22;16.08;;;10.63;;
20810;SDS011;10566;52.928;10.522;2022-08-19T04:45:07;14.55;;;10.70;;
20810;SDS011;10566;52.928;10.522;2022-08-19T04:47:35;14.20;;;9.45;;
20810;SDS011;10566;52.928;10.522;2022-08-19T04:50:02;13.98;;;10.68;;
20810;SDS011;10566;52.928;10.522;2022-08-19T04:52:28;15.43;;;10.70;;
20810;SDS011;10566;52.928;10.522;2022-08-19T04:54:56;15.05;;;10.05;;
20810;SDS011;10566;52.928;10.522;2022-08-19T04:57:22;14.70;;;9.77;;
20810;SDS011;10566;52.928;10.522;2022-08-19T04:59:49;14.52;;;9.80;;
20810;SDS011;10566;52.928;10.522;2022-08-19T05:02:15;14.80;;;9.90;;
20810;SDS011;10566;52.928;10.522;2022-08-19T05:04:41;16.83;;;10.20;;
20810;SDS011;10566;52.928;10.522;2022-08-19T05:07:07;14.77;;;9.73;;
20810;SDS011;10566;52.928;10.522;2022-08-19T05:09:34;14.25;;;9.73;;
20810;SDS011;10566;52.928;10.522;2022-08-19T05:12:00;14.27;;;9.65;;
20810;SDS011;10566;52.928;10.522;2022-08-19T05:14:26;14.25;;;9.95;;
20810;SDS011;10566;52.928;10.522;2022-08-19T05:16:53;13.32;;;9.75;;
20810;SDS011;10566;52.928;10.522;2022-08-19T05:19:19;14.18;;;9.45;;
20810;SDS011;10566;52.928;10.522;2022-08-19T05:22:04;13.20;;;8.90;;
20810;SDS011;10566;52.928;10.522;2022-08-19T05:24:49;15.40;;;9.90;;
20810;SDS011;10566;52.928;10.522;2022-08-19T05:27:15;15.38;;;9.70;;
20810;SDS011;10566;52.928;10.522;2022-08-19T05:29:41;16.45;;;10.13;;
20810;SDS011;10566;52.928;10.522;2022-08-19T05:32:07;13.20;;;9.80;;
20810;SDS011;10566;52.928;10.522;2022-08-19T05:34:36;13.43;;;10.68;;
20810;SDS011;10566;52.928;10.522;2022-08-19T05:37:03;15.80;;;9.38;;
20810;SDS011;10566;52.928;10.522;2022-08-19T05:39:30;18.08;;;10.20;;
20810;SDS011;10566;52.928;10.522;2022-08-19T05:41:58;14.90;;;9.70;;
20810;SDS011;10566;52.928;10.522;2022-08-19T05:44:25;14.90;;;10.07;;
20810;SDS011;10566;52.928;10.522;2022-08-19T05:46:52;15.35;;;9.88;;
20810;SDS011;10566;52.928;10.522;2022-08-19T05:49:19;16.00;;;10.93;;
20810;SDS011;10566;52.928;10.522;2022-08-19T05:51:45;15.82;;;11.13;;
20810;SDS011;10566;52.928;10.522;2022-08-19T05:54:11;16.85;;;11.23;;
20810;SDS011;10566;52.928;10.522;2022-08-19T05:56:38;18.33;;;10.25;;
20810;SDS011;10566;52.928;10.522;2022-08-19T05:59:05;19.58;;;11.57;;
20810;SDS011;10566;52.928;10.522;2022-08-19T06:01:36;19.33;;;11.80;;
20810;SDS011;10566;52.928;10.522;2022-08-19T06:04:02;14.73;;;10.57;;
20810;SDS011;10566;52.928;10.522;2022-08-19T06:06:29;17.00;;;12.32;;
20810;SDS011;10566;52.928;10.522;2022-08-19T06:08:55;16.10;;;10.98;;
20810;SDS011;10566;52.928;10.522;2022-08-19T06:11:22;16.85;;;11.75;;
20810;SDS011;10566;52.928;10.522;2022-08-19T06:13:49;15.05;;;10.60;;
20810;SDS011;10566;52.928;10.522;2022-08-19T06:16:17;18.73;;;12.02;;
20810;SDS011;10566;52.928;10.522;2022-08-19T06:18:53;19.85;;;12.05;;
20810;SDS011;10566;52.928;10.522;2022-08-19T06:21:22;19.48;;;12.23;;
20810;SDS011;10566;52.928;10.522;2022-08-19T06:23:48;20.33;;;13.18;;
20810;SDS011;10566;52.928;10.522;2022-08-19T06:26:15;20.27;;;12.93;;
20810;SDS011;10566;52.928;10.522;2022-08-19T06:28:42;20.55;;;12.73;;
20810;SDS011;10566;52.928;10.522;2022-08-19T06:31:11;21.98;;;13.73;;
20810;SDS011;10566;52.928;10.522;2022-08-19T06:33:38;18.98;;;12.68;;
20810;SDS011;10566;52.928;10.522;2022-08-19T06:36:04;21.60;;;13.75;;
20810;SDS011;10566;52.928;10.522;2022-08-19T06:38:31;19.73;;;12.77;;
20810;SDS011;10566;52.928;10.522;2022-08-19T06:41:01;19.67;;;13.20;;
20810;SDS011;10566;52.928;10.522;2022-08-19T06:43:27;20.13;;;13.80;;
20810;SDS011;10566;52.928;10.522;2022-08-19T06:45:53;20.38;;;13.75;;
20810;SDS011;10566;52.928;10.522;2022-08-19T06:48:20;22.70;;;14.48;;
20810;SDS011;10566;52.928;10.522;2022-08-19T06:50:46;21.60;;;13.38;;
20810;SDS011;10566;52.928;10.522;2022-08-19T06:53:13;24.40;;;14.73;;
20810;SDS011;10566;52.928;10.522;2022-08-19T06:55:39;21.90;;;13.68;;
20810;SDS011;10566;52.928;10.522;2022-08-19T06:58:05;24.00;;;14.50;;
20810;SDS011;10566;52.928;10.522;2022-08-19T07:00:31;25.40;;;15.98;;
20810;SDS011;10566;52.928;10.522;2022-08-19T07:02:57;22.88;;;14.88;;
20810;SDS011;10566;52.928;10.522;2022-08-19T07:05:25;23.98;;;14.90;;
20810;SDS011;10566;52.928;10.522;2022-08-19T07:07:51;24.20;;;14.57;;
20810;SDS011;10566;52.928;10.522;2022-08-19T07:10:17;22.67;;;15.05;;
20810;SDS011;10566;52.928;10.522;2022-08-19T07:12:44;22.10;;;15.15;;
20810;SDS011;10566;52.928;10.522;2022-08-19T07:15:10;21.95;;;15.05;;
20810;SDS011;10566;52.928;10.522;2022-08-19T07:17:36;26.30;;;15.40;;
20810;SDS011;10566;52.928;10.522;2022-08-19T07:20:04;25.42;;;15.80;;
20810;SDS011;10566;52.928;10.522;2022-08-19T07:22:31;24.95;;;15.57;;
20810;SDS011;10566;52.928;10.522;2022-08-19T07:24:58;26.25;;;15.93;;
20810;SDS011;10566;52.928;10.522;2022-08-19T07:27:24;24.17;;;15.48;;
20810;SDS011;10566;52.928;10.522;2022-08-19T07:29:51;23.75;;;16.98;;
20810;SDS011;10566;52.928;10.522;2022-08-19T07:32:17;27.33;;;16.63;;
20810;SDS011;10566;52.928;10.522;2022-08-19T07:34:43;25.00;;;16.38;;
20810;SDS011;10566;52.928;10.522;2022-08-19T07:37:10;28.88;;;16.50;;
20810;SDS011;10566;52.928;10.522;2022-08-19T07:39:36;25.63;;;17.20;;
20810;SDS011;10566;52.928;10.522;2022-08-19T07:42:05;29.38;;;17.45;;
20810;SDS011;10566;52.928;10.522;2022-08-19T07:44:32;30.15;;;18.75;;
20810;SDS011;10566;52.928;10.522;2022-08-19T07:46:59;29.73;;;18.80;;
20810;SDS011;10566;52.928;10.522;2022-08-19T07:49:25;28.80;;;18.40;;
20810;SDS011;10566;52.928;10.522;2022-08-19T07:51:53;28.35;;;17.60;;
20810;SDS011;10566;52.928;10.522;2022-08-19T07:54:20;29.60;;;17.58;;
20810;SDS011;10566;52.928;10.522;2022-08-19T07:56:47;33.38;;;19.30;;
20810;SDS011;10566;52.928;10.522;2022-08-19T07:59:15;30.95;;;18.38;;
20810;SDS011;10566;52.928;10.522;2022-08-19T08:01:42;29.05;;;18.35;;
20810;SDS011;10566;52.928;10.522;2022-08-19T08:04:09;32.10;;;19.60;;
20810;SDS011;10566;52.928;10.522;2022-08-19T08:06:55;27.92;;;18.80;;
20810;SDS011;10566;52.928;10.522;2022-08-19T08:09:40;30.63;;;19.38;;
20810;SDS011;10566;52.928;10.522;2022-08-19T08:12:11;28.70;;;19.02;;
20810;SDS011;10566;52.928;10.522;2022-08-19T08:14:38;28.23;;;17.55;;
20810;SDS011;10566;52.928;10.522;2022-08-19T08:17:06;32.88;;;19.52;;
20810;SDS011;10566;52.928;10.522;2022-08-19T08:19:32;27.85;;;18.08;;
20810;SDS011;10566;52.928;10.522;2022-08-19T08:21:59;32.75;;;20.00;;
20810;SDS011;10566;52.928;10.522;2022-08-19T08:24:29;34.88;;;20.60;;
20810;SDS011;10566;52.928;10.522;2022-08-19T08:26:57;34.38;;;21.20;;
20810;SDS011;10566;52.928;10.522;2022-08-19T08:29:24;34.97;;;20.80;;
20810;SDS011;10566;52.928;10.522;2022-08-19T08:31:50;27.77;;;18.23;;
20810;SDS011;10566;52.928;10.522;2022-08-19T08:34:19;29.58;;;20.20;;
20810;SDS011;10566;52.928;10.522;2022-08-19T08:36:45;33.53;;;19.80;;
20810;SDS011;10566;52.928;10.522;2022-08-19T08:39:13;35.40;;;21.77;;
20810;SDS011;10566;52.928;10.522;2022-08-19T08:41:44;32.38;;;20.77;;
20810;SDS011;10566;52.928;10.522;2022-08-19T08:44:17;32.67;;;19.73;;
20810;SDS011;10566;52.928;10.522;2022-08-19T08:46:53;28.50;;;19.38;;
20810;SDS011;10566;52.928;10.522;2022-08-19T08:49:26;29.15;;;17.92;;
20810;SDS011;10566;52.928;10.522;2022-08-19T08:52:06;28.45;;;18.23;;
20810;SDS011;10566;52.928;10.522;2022-08-19T08:54:37;30.00;;;19.02;;
20810;SDS011;10566;52.928;10.522;2022-08-19T08:57:07;28.73;;;18.10;;
20810;SDS011;10566;52.928;10.522;2022-08-19T08:59:36;28.85;;;17.48;;
20810;SDS011;10566;52.928;10.522;2022-08-19T09:02:03;27.50;;;17.65;;
20810;SDS011;10566;52.928;10.522;2022-08-19T09:04:29;26.67;;;17.70;;
20810;SDS011;10566;52.928;10.522;2022-08-19T09:07:41;27.60;;;17.63;;
20810;SDS011;10566;52.928;10.522;2022-08-19T09:09:43;24.15;;;17.42;;
20810;SDS011;10566;52.928;10.522;2022-08-19T09:14:56;25.63;;;16.23;;
20810;SDS011;10566;52.928;10.522;2022-08-19T09:17:24;26.00;;;17.00;;
20810;SDS011;10566;52.928;10.522;2022-08-19T09:19:57;24.08;;;15.50;;
20810;SDS011;10566;52.928;10.522;2022-08-19T09:22:23;24.00;;;16.30;;
20810;SDS011;10566;52.928;10.522;2022-08-19T09:24:51;25.63;;;15.27;;
20810;SDS011;10566;52.928;10.522;2022-08-19T09:27:18;27.20;;;16.13;;
20810;SDS011;10566;52.928;10.522;2022-08-19T09:29:45;23.75;;;15.63;;
20810;SDS011;10566;52.928;10.522;2022-08-19T09:32:13;20.08;;;14.55;;
20810;SDS011;10566;52.928;10.522;2022-08-19T09:34:39;22.92;;;15.50;;
20810;SDS011;10566;52.928;10.522;2022-08-19T09:37:06;19.92;;;14.43;;
20810;SDS011;10566;52.928;10.522;2022-08-19T09:39:32;22.85;;;15.05;;
20810;SDS011;10566;52.928;10.522;2022-08-19T09:41:58;23.50;;;14.30;;
20810;SDS011;10566;52.928;10.522;2022-08-19T09:44:24;23.95;;;14.80;;
20810;SDS011;10566;52.928;10.522;2022-08-19T09:46:50;23.08;;;15.57;;
20810;SDS011;10566;52.928;10.522;2022-08-19T09:49:17;20.55;;;14.88;;
20810;SDS011;10566;52.928;10.522;2022-08-19T09:51:46;21.35;;;15.43;;
20810;SDS011;10566;52.928;10.522;2022-08-19T09:54:14;20.70;;;14.55;;
20810;SDS011;10566;52.928;10.522;2022-08-19T09:56:40;23.67;;;15.63;;
20810;SDS011;10566;52.928;10.522;2022-08-19T09:59:06;22.90;;;16.17;;
20810;SDS011;10566;52.928;10.522;2022-08-19T10:01:34;24.58;;;16.67;;
20810;SDS011;10566;52.928;10.522;2022-08-19T10:04:00;27.50;;;16.15;;
20810;SDS011;10566;52.928;10.522;2022-08-19T10:06:29;23.50;;;16.05;;
20810;SDS011;10566;52.928;10.522;2022-08-19T10:08:57;26.52;;;17.50;;
20810;SDS011;10566;52.928;10.522;2022-08-19T10:11:23;27.52;;;17.70;;
20810;SDS011;10566;52.928;10.522;2022-08-19T10:13:50;24.27;;;15.63;;
20810;SDS011;10566;52.928;10.522;2022-08-19T10:16:18;24.35;;;16.23;;
20810;SDS011;10566;52.928;10.522;2022-08-19T10:18:46;25.67;;;18.02;;
20810;SDS011;10566;52.928;10.522;2022-08-19T10:21:13;25.35;;;16.33;;
20810;SDS011;10566;52.928;10.522;2022-08-19T10:23:40;26.27;;;17.08;;
20810;SDS011;10566;52.928;10.522;2022-08-19T10:26:09;28.77;;;17.40;;
20810;SDS011;10566;52.928;10.522;2022-08-19T10:28:36;27.80;;;16.65;;
20810;SDS011;10566;52.928;10.522;2022-08-19T10:31:11;27.98;;;18.27;;
20810;SDS011;10566;52.928;10.522;2022-08-19T10:33:37;26.63;;;16.95;;
20810;SDS011;10566;52.928;10.522;2022-08-19T10:36:05;22.90;;;15.23;;
20810;SDS011;10566;52.928;10.522;2022-08-19T10:38:32;27.98;;;17.10;;
20810;SDS011;10566;52.928;10.522;2022-08-19T10:41:05;30.33;;;16.77;;
20810;SDS011;10566;52.928;10.522;2022-08-19T10:43:32;22.55;;;15.50;;
20810;SDS011;10566;52.928;10.522;2022-08-19T10:46:02;25.48;;;15.85;;
20810;SDS011;10566;52.928;10.522;2022-08-19T10:48:30;25.67;;;15.05;;
20810;SDS011;10566;52.928;10.522;2022-08-19T10:50:57;25.17;;;15.02;;
20810;SDS011;10566;52.928;10.522;2022-08-19T10:53:41;28.65;;;14.63;;
20810;SDS011;10566;52.928;10.522;2022-08-19T10:56:07;26.23;;;14.90;;
20810;SDS011;10566;52.928;10.522;2022-08-19T10:58:52;28.60;;;16.27;;
20810;SDS011;10566;52.928;10.522;2022-08-19T11:01:18;24.92;;;15.32;;
20810;SDS011;10566;52.928;10.522;2022-08-19T11:03:45;26.42;;;14.80;;
20810;SDS011;10566;52.928;10.522;2022-08-19T11:06:11;27.10;;;15.30;;
20810;SDS011;10566;52.928;10.522;2022-08-19T11:08:37;24.23;;;15.18;;
20810;SDS011;10566;52.928;10.522;2022-08-19T11:11:04;25.02;;;16.00;;
20810;SDS011;10566;52.928;10.522;2022-08-19T11:13:31;34.25;;;15.13;;
20810;SDS011;10566;52.928;10.522;2022-08-19T11:16:31;25.67;;;15.75;;
20810;SDS011;10566;52.928;10.522;2022-08-19T11:18:53;25.33;;;16.42;;
20810;SDS011;10566;52.928;10.522;2022-08-19T11:21:23;23.02;;;15.43;;
20810;SDS011;10566;52.928;10.522;2022-08-19T11:23:51;29.05;;;17.50;;
20810;SDS011;10566;52.928;10.522;2022-08-19T11:26:18;28.38;;;17.10;;
20810;SDS011;10566;52.928;10.522;2022-08-19T11:28:50;25.92;;;16.83;;
20810;SDS011;10566;52.928;10.522;2022-08-19T11:31:20;27.20;;;16.80;;
20810;SDS011;10566;52.928;10.522;2022-08-19T11:33:47;26.30;;;16.75;;
20810;SDS011;10566;52.928;10.522;2022-08-19T11:36:19;26.63;;;17.40;;
20810;SDS011;10566;52.928;10.522;2022-08-19T11:38:46;30.23;;;16.17;;
20810;SDS011;10566;52.928;10.522;2022-08-19T11:41:13;27.30;;;17.60;;
20810;SDS011;10566;52.928;10.522;2022-08-19T11:43:39;23.73;;;15.50;;
20810;SDS011;10566;52.928;10.522;2022-08-19T11:46:10;26.13;;;17.63;;
20810;SDS011;10566;52.928;10.522;2022-08-19T11:48:38;25.67;;;15.95;;
20810;SDS011;10566;52.928;10.522;2022-08-19T11:51:05;23.52;;;17.10;;
20810;SDS011;10566;52.928;10.522;2022-08-19T11:53:32;23.20;;;15.60;;
20810;SDS011;10566;52.928;10.522;2022-08-19T11:55:59;23.38;;;16.02;;
20810;SDS011;10566;52.928;10.522;2022-08-19T11:58:25;25.20;;;16.75;;
20810;SDS011;10566;52.928;10.522;2022-08-19T12:00:51;21.55;;;15.02;;
20810;SDS011;10566;52.928;10.522;2022-08-19T12:03:17;23.40;;;17.10;;
20810;SDS011;10566;52.928;10.522;2022-08-19T12:05:44;21.95;;;15.45;;
20810;SDS011;10566;52.928;10.522;2022-08-19T12:08:11;20.40;;;15.43;;
20810;SDS011;10566;52.928;10.522;2022-08-19T12:10:38;24.35;;;15.95;;
20810;SDS011;10566;52.928;10.522;2022-08-19T12:13:04;20.13;;;15.70;;
20810;SDS011;10566;52.928;10.522;2022-08-19T12:15:34;20.75;;;14.75;;
20810;SDS011;10566;52.928;10.522;2022-08-19T12:18:01;21.17;;;15.32;;
20810;SDS011;10566;52.928;10.522;2022-08-19T12:20:27;23.60;;;17.40;;
20810;SDS011;10566;52.928;10.522;2022-08-19T12:22:53;21.83;;;16.50;;
20810;SDS011;10566;52.928;10.522;2022-08-19T12:25:19;18.92;;;15.30;;
20810;SDS011;10566;52.928;10.522;2022-08-19T12:27:48;21.92;;;16.35;;
20810;SDS011;10566;52.928;10.522;2022-08-19T12:30:28;21.42;;;15.98;;
20810;SDS011;10566;52.928;10.522;2022-08-19T12:32:55;20.13;;;15.23;;
20810;SDS011;10566;52.928;10.522;2022-08-19T12:35:21;20.77;;;15.48;;
20810;SDS011;10566;52.928;10.522;2022-08-19T12:37:48;22.17;;;16.00;;
20810;SDS011;10566;52.928;10.522;2022-08-19T12:40:17;21.52;;;15.88;;
20810;SDS011;10566;52.928;10.522;2022-08-19T12:42:45;21.20;;;16.45;;
20810;SDS011;10566;52.928;10.522;2022-08-19T12:45:12;19.48;;;14.80;;
20810;SDS011;10566;52.928;10.522;2022-08-19T12:47:39;19.73;;;14.88;;
20810;SDS011;10566;52.928;10.522;2022-08-19T12:50:13;20.45;;;14.85;;
20810;SDS011;10566;52.928;10.522;2022-08-19T12:52:39;23.23;;;16.88;;
20810;SDS011;10566;52.928;10.522;2022-08-19T12:55:07;21.27;;;15.93;;
20810;SDS011;10566;52.928;10.522;2022-08-19T12:57:33;19.90;;;15.05;;
20810;SDS011;10566;52.928;10.522;2022-08-19T13:00:05;21.52;;;15.35;;
20810;SDS011;10566;52.928;10.522;2022-08-19T13:02:35;18.30;;;13.13;;
20810;SDS011;10566;52.928;10.522;2022-08-19T13:05:02;20.02;;;14.40;;
20810;SDS011;10566;52.928;10.522;2022-08-19T13:07:29;18.80;;;14.40;;
20810;SDS011;10566;52.928;10.522;2022-08-19T13:09:55;20.00;;;15.02;;
20810;SDS011;10566;52.928;10.522;2022-08-19T13:12:21;21.38;;;14.20;;
20810;SDS011;10566;52.928;10.522;2022-08-19T13:14:49;22.75;;;17.15;;
20810;SDS011;10566;52.928;10.522;2022-08-19T13:17:17;23.70;;;16.02;;
20810;SDS011;10566;52.928;10.522;2022-08-19T13:19:43;17.48;;;14.02;;
20810;SDS011;10566;52.928;10.522;2022-08-19T13:22:10;18.38;;;13.50;;
20810;SDS011;10566;52.928;10.522;2022-08-19T13:24:37;20.00;;;13.98;;
20810;SDS011;10566;52.928;10.522;2022-08-19T13:27:05;18.27;;;13.80;;
20810;SDS011;10566;52.928;10.522;2022-08-19T13:29:35;19.73;;;14.07;;
20810;SDS011;10566;52.928;10.522;2022-08-19T13:32:20;18.27;;;14.40;;
20810;SDS011;10566;52.928;10.522;2022-08-19T13:35:06;20.52;;;14.10;;
20810;SDS011;10566;52.928;10.522;2022-08-19T13:37:33;20.73;;;14.65;;
20810;SDS011;10566;52.928;10.522;2022-08-19T13:40:10;21.05;;;14.90;;
20810;SDS011;10566;52.928;10.522;2022-08-19T13:42:41;17.90;;;14.05;;
20810;SDS011;10566;52.928;10.522;2022-08-19T13:45:07;20.05;;;14.93;;
20810;SDS011;10566;52.928;10.522;2022-08-19T13:47:34;20.58;;;16.15;;
20810;SDS011;10566;52.928;10.522;2022-08-19T13:50:03;20.42;;;15.07;;
20810;SDS011;10566;52.928;10.522;2022-08-19T13:52:30;20.73;;;16.30;;
20810;SDS011;10566;52.928;10.522;2022-08-19T13:54:56;19.98;;;15.20;;
20810;SDS011;10566;52.928;10.522;2022-08-19T13:57:23;21.02;;;16.08;;
20810;SDS011;10566;52.928;10.522;2022-08-19T13:59:49;18.30;;;14.27;;
20810;SDS011;10566;52.928;10.522;2022-08-19T14:02:15;21.27;;;15.57;;
20810;SDS011;10566;52.928;10.522;2022-08-19T14:04:41;21.00;;;15.07;;
20810;SDS011;10566;52.928;10.522;2022-08-19T14:07:07;20.02;;;15.63;;
20810;SDS011;10566;52.928;10.522;2022-08-19T14:09:34;19.77;;;13.88;;
20810;SDS011;10566;52.928;10.522;2022-08-19T14:12:00;19.80;;;14.85;;
20810;SDS011;10566;52.928;10.522;2022-08-19T14:14:26;23.92;;;16.58;;
20810;SDS011;10566;52.928;10.522;2022-08-19T14:16:52;22.13;;;15.65;;
20810;SDS011;10566;52.928;10.522;2022-08-19T14:19:18;20.17;;;16.23;;